Time;durP1;ratioP1;P1;durP2;ratioP2;P2;SDS_P1;SDS_P2;PMS_P1;PMS_P2;Temp;Humidity;BMP_temperature;BMP_pressure;BME280_temperature;BME280_humidity;BME280_pressure;Samples;Min_cycle;Max_cycle;Signal;HPM_P1;HPM_P2
2020/12/24 00:01:58;;;;;;;100.72;52.88;;;;;;;10.21;78.18;101772.41;5032972;28;20056;-59
2020/12/24 00:04:24;;;;;;;94.50;48.80;;;;;;;10.22;78.31;101781.13;5034352;28;20079;-59
2020/12/24 00:06:51;;;;;;;92.75;49.47;;;;;;;10.22;78.35;101765.38;5033861;28;20046;-59
2020/12/24 00:09:17;;;;;;;95.53;49.90;;;;;;;10.22;78.27;101768.88;5034059;28;20049;-59
2020/12/24 00:11:43;;;;;;;92.05;50.38;;;;;;;10.21;78.33;101764.53;5033842;28;20088;-59
2020/12/24 00:14:09;;;;;;;101.32;51.35;;;;;;;10.20;78.30;101759.34;5033789;28;20486;-59
2020/12/24 00:16:36;;;;;;;96.63;50.13;;;;;;;10.20;78.24;101757.56;5033967;28;20052;-60
2020/12/24 00:19:02;;;;;;;95.25;48.47;;;;;;;10.20;78.16;101754.13;5033649;28;20494;-59
2020/12/24 00:21:28;;;;;;;96.10;49.60;;;;;;;10.19;77.92;101747.16;5032794;28;20057;-59
2020/12/24 00:23:54;;;;;;;93.75;50.67;;;;;;;10.18;77.85;101751.53;5033361;28;20095;-60
2020/12/24 00:26:20;;;;;;;96.93;47.17;;;;;;;10.20;77.94;101756.75;5033459;28;20532;-59
2020/12/24 00:28:48;;;;;;;101.22;50.75;;;;;;;10.19;77.87;101747.16;5033591;28;20049;-59
2020/12/24 00:31:14;;;;;;;101.07;49.05;;;;;;;10.20;77.80;101741.00;5033510;28;20052;-60
2020/12/24 00:33:40;;;;;;;98.63;50.00;;;;;;;10.18;77.83;101727.91;5033796;28;20045;-60
2020/12/24 00:36:07;;;;;;;97.38;49.65;;;;;;;10.18;77.80;101735.78;5033420;28;20045;-60
2020/12/24 00:38:33;;;;;;;93.63;48.78;;;;;;;10.18;77.81;101734.94;5033314;28;20052;-60
2020/12/24 00:40:59;;;;;;;93.72;48.45;;;;;;;10.18;77.94;101732.31;5033231;28;20088;-59
2020/12/24 00:43:25;;;;;;;94.05;49.08;;;;;;;10.17;77.96;101726.25;5033223;28;20482;-59
2020/12/24 00:45:51;;;;;;;91.15;48.55;;;;;;;10.16;77.81;101724.53;5033339;28;20042;-59
2020/12/24 00:48:33;;;;;;;102.45;51.60;;;;;;;10.18;78.09;101734.94;5032202;28;20079;-59
2020/12/24 00:50:59;;;;;;;91.85;47.42;;;;;;;10.16;77.96;101719.28;5031769;28;20490;-59
2020/12/24 00:53:25;;;;;;;94.75;48.38;;;;;;;10.18;77.97;101721.84;5033186;28;20486;-59
2020/12/24 00:55:51;;;;;;;100.88;48.45;;;;;;;10.17;77.79;101717.50;5033108;28;20050;-59
2020/12/24 00:58:17;;;;;;;96.55;48.08;;;;;;;10.17;77.91;101717.50;5033049;28;20053;-59
2020/12/24 01:00:43;;;;;;;99.18;49.40;;;;;;;10.16;77.75;101711.41;5032813;28;20049;-60
2020/12/24 01:03:09;;;;;;;96.32;49.20;;;;;;;10.16;77.66;101716.66;5032876;28;20049;-59
2020/12/24 01:05:35;;;;;;;95.88;50.28;;;;;;;10.17;77.60;101714.88;5032865;28;20144;-59
2020/12/24 01:08:01;;;;;;;88.32;48.13;;;;;;;10.15;77.54;101711.47;5032819;28;20483;-60
2020/12/24 01:10:27;;;;;;;92.45;48.30;;;;;;;10.15;77.54;101719.34;5032830;28;20126;-59
2020/12/24 01:12:54;;;;;;;101.63;51.35;;;;;;;10.15;77.78;101714.94;5032608;28;20107;-59
2020/12/24 01:15:20;;;;;;;90.38;47.70;;;;;;;10.15;77.77;101709.69;5032886;28;20067;-59
2020/12/24 01:17:47;;;;;;;100.30;50.50;;;;;;;10.13;77.96;101715.00;5032655;28;20045;-59
2020/12/24 01:20:13;;;;;;;91.53;48.42;;;;;;;10.14;77.70;101705.34;5032759;28;20077;-59
2020/12/24 01:22:39;;;;;;;94.13;48.00;;;;;;;10.14;77.76;101710.59;5032610;28;20130;-59
2020/12/24 01:25:05;;;;;;;90.20;49.10;;;;;;;10.13;77.93;101701.03;5032506;28;20099;-59
2020/12/24 01:27:32;;;;;;;92.88;47.20;;;;;;;10.13;78.11;101706.25;5032555;28;20061;-59
2020/12/24 01:29:58;;;;;;;88.82;48.45;;;;;;;10.11;78.05;101692.38;5032400;28;20114;-60
2020/12/24 01:32:24;;;;;;;92.63;48.35;;;;;;;10.10;78.12;101694.13;5032264;28;20053;-60
2020/12/24 01:34:50;;;;;;;100.90;50.72;;;;;;;10.11;78.12;101697.63;5032130;28;20461;-60
2020/12/24 01:37:17;;;;;;;89.30;48.95;;;;;;;10.10;78.05;101685.41;5032447;28;20052;-59
2020/12/24 01:39:45;;;;;;;88.38;48.80;;;;;;;10.10;78.24;101685.41;5032476;28;20045;-59
2020/12/24 01:42:12;;;;;;;85.63;47.25;;;;;;;10.10;78.11;101680.19;5032382;28;20107;-59
2020/12/24 01:44:38;;;;;;;89.82;48.25;;;;;;;10.09;78.31;101683.69;5032425;28;20049;-59
2020/12/24 01:47:04;;;;;;;91.35;47.85;;;;;;;10.08;78.35;101682.88;5032088;28;20061;-59
2020/12/24 01:49:32;;;;;;;85.63;48.17;;;;;;;10.07;78.35;101673.28;5032159;28;20596;-60
2020/12/24 01:51:58;;;;;;;92.65;49.40;;;;;;;10.07;77.95;101677.69;5031827;28;20465;-59
2020/12/24 01:54:25;;;;;;;90.05;48.53;;;;;;;10.06;78.47;101668.09;5032207;28;20053;-59
2020/12/24 01:56:52;;;;;;;91.57;48.78;;;;;;;10.07;78.22;101659.31;5032237;28;20045;-59
2020/12/24 01:59:21;;;;;;;91.90;46.03;;;;;;;10.05;78.33;101662.00;5032268;28;20428;-59
2020/12/24 02:01:49;;;;;;;90.60;47.83;;;;;;;10.05;78.35;101654.13;5032031;28;20482;-59
2020/12/24 02:04:16;;;;;;;83.38;46.05;;;;;;;10.05;78.60;101642.78;5031986;28;20054;-59
2020/12/24 02:06:43;;;;;;;82.70;46.88;;;;;;;10.05;78.26;101642.78;5032165;28;20045;-59
2020/12/24 02:09:10;;;;;;;80.32;44.47;;;;;;;10.04;78.27;101636.66;5031850;28;20087;-59
2020/12/24 02:11:42;;;;;;;81.07;44.72;;;;;;;10.04;78.33;101634.06;5032045;28;20095;-60
2020/12/24 02:14:08;;;;;;;84.03;45.20;;;;;;;10.02;78.13;101638.53;5031842;28;20050;-59
2020/12/24 02:16:36;;;;;;;80.97;44.33;;;;;;;10.03;78.18;101624.50;5031880;28;20107;-59
2020/12/24 02:19:06;;;;;;;86.88;46.47;;;;;;;10.04;78.10;101620.09;5032050;28;20418;-59
2020/12/24 02:21:33;;;;;;;83.22;46.60;;;;;;;10.01;78.08;101607.97;5032102;28;20053;-59
2020/12/24 02:24:00;;;;;;;91.18;47.63;;;;;;;10.03;78.01;101605.28;5032002;28;20056;-59
2020/12/24 02:26:32;;;;;;;89.53;47.97;;;;;;;10.01;78.21;101596.63;5032057;28;20049;-59
2020/12/24 02:28:58;;;;;;;94.70;48.10;;;;;;;10.01;78.13;101586.97;5031937;28;20048;-60
2020/12/24 02:31:25;;;;;;;85.65;46.92;;;;;;;10.01;78.15;101584.38;5031708;28;20045;-59
2020/12/24 02:33:51;;;;;;;84.90;44.72;;;;;;;10.01;78.15;101575.66;5031721;28;20460;-59
2020/12/24 02:36:17;;;;;;;80.47;42.75;;;;;;;10.01;78.21;101575.66;5031669;28;20556;-59
2020/12/24 02:38:43;;;;;;;83.43;44.00;;;;;;;10.00;78.42;101559.06;5031954;28;20046;-59
2020/12/24 02:41:09;;;;;;;79.38;42.90;;;;;;;9.99;78.19;101554.72;5031744;28;20053;-59
2020/12/24 02:43:36;;;;;;;73.22;43.00;;;;;;;9.98;78.22;101563.53;5031715;28;20050;-59
2020/12/24 02:46:02;;;;;;;84.30;42.90;;;;;;;9.97;78.15;101565.28;5033895;28;20050;-59
2020/12/24 02:48:28;;;;;;;81.55;43.13;;;;;;;9.99;78.18;101559.97;5035378;28;20045;-59
2020/12/24 02:50:54;;;;;;;81.97;41.67;;;;;;;9.98;78.22;101560.91;5035124;28;20049;-60
2020/12/24 02:53:20;;;;;;;77.72;41.97;;;;;;;9.98;78.19;101558.28;5035498;28;20045;-59
2020/12/24 02:55:46;;;;;;;80.95;43.22;;;;;;;9.97;78.29;101541.69;5035339;28;20412;-59
2020/12/24 02:58:12;;;;;;;74.78;41.47;;;;;;;9.96;78.20;101545.22;5035174;28;20449;-59
2020/12/24 03:00:38;;;;;;;73.55;39.97;;;;;;;9.96;78.18;101531.25;5035220;28;20099;-59
2020/12/24 03:03:04;;;;;;;75.65;41.78;;;;;;;9.96;78.18;101523.41;5035022;28;20053;-59
2020/12/24 03:05:31;;;;;;;70.63;41.03;;;;;;;9.95;78.26;101517.31;5035268;28;20561;-59
2020/12/24 03:07:57;;;;;;;71.07;40.60;;;;;;;9.94;78.22;101518.22;5035088;28;20049;-60
2020/12/24 03:10:23;;;;;;;76.53;41.20;;;;;;;9.93;78.26;101519.13;5035169;28;20099;-60
2020/12/24 03:12:49;;;;;;;76.78;40.15;;;;;;;9.93;78.07;101516.50;5034897;28;20041;-60
2020/12/24 03:15:15;;;;;;;77.13;41.38;;;;;;;9.93;78.05;101513.88;5034799;28;20045;-59
2020/12/24 03:17:41;;;;;;;81.35;42.47;;;;;;;9.91;78.04;101513.09;5034917;28;20478;-60
2020/12/24 03:20:16;;;;;;;73.40;41.10;;;;;;;9.92;77.96;101514.81;5034950;28;20052;-60
2020/12/24 03:22:42;;;;;;;72.88;40.88;;;;;;;9.91;77.83;101518.34;5034649;28;20092;-60
2020/12/24 03:25:08;;;;;;;71.13;41.08;;;;;;;9.92;78.06;101512.19;5034831;28;20052;-59
2020/12/24 03:27:35;;;;;;;71.15;39.85;;;;;;;9.91;78.05;101517.50;5034743;28;20085;-60
2020/12/24 03:30:02;;;;;;;69.57;39.08;;;;;;;9.91;78.06;101518.34;5034493;28;20508;-59
2020/12/24 03:32:28;;;;;;;75.03;40.95;;;;;;;9.90;78.01;101521.03;5034807;28;20049;-59
2020/12/24 03:34:54;;;;;;;72.45;40.63;;;;;;;9.90;78.03;101507.91;5034659;28;20045;-59
2020/12/24 03:37:20;;;;;;;72.20;39.75;;;;;;;9.90;77.83;101502.69;5034602;28;20111;-60
2020/12/24 03:39:46;;;;;;;70.28;38.83;;;;;;;9.90;78.05;101498.31;5034598;28;20115;-59
2020/12/24 03:42:12;;;;;;;75.40;40.78;;;;;;;9.90;77.97;101498.31;5034481;28;20486;-59
2020/12/24 03:44:38;;;;;;;78.32;40.67;;;;;;;9.90;77.85;101487.81;5034397;28;20132;-59
2020/12/24 03:47:04;;;;;;;75.85;41.22;;;;;;;9.89;77.93;101482.59;5034264;28;20445;-59
2020/12/24 03:49:31;;;;;;;71.88;38.70;;;;;;;9.87;77.85;101472.19;5034358;28;20046;-59
2020/12/24 03:51:57;;;;;;;68.07;37.90;;;;;;;9.87;77.82;101474.81;5034031;28;20529;-60
2020/12/24 03:54:24;;;;;;;62.33;36.20;;;;;;;9.86;77.66;101464.41;5034341;28;20049;-61
2020/12/24 03:56:50;;;;;;;59.10;35.45;;;;;;;9.85;77.61;101460.91;5034047;28;20119;-60
2020/12/24 03:59:16;;;;;;;60.10;34.15;;;;;;;9.85;77.60;101454.81;5034173;28;20461;-59
2020/12/24 04:01:42;;;;;;;54.22;33.13;;;;;;;9.84;77.45;101455.75;5033134;28;20049;-60
2020/12/24 04:04:08;;;;;;;55.17;33.97;;;;;;;9.83;77.31;101454.91;5029589;28;20045;-59
2020/12/24 04:06:34;;;;;;;53.42;32.63;;;;;;;9.83;77.21;101457.53;5030902;28;20053;-60
2020/12/24 04:09:01;;;;;;;57.65;33.35;;;;;;;9.83;77.30;101448.78;5030625;28;20049;-59
2020/12/24 04:11:27;;;;;;;57.42;34.50;;;;;;;9.83;77.17;101448.78;5030663;28;20057;-59
2020/12/24 04:13:53;;;;;;;63.40;35.97;;;;;;;9.83;77.02;101443.53;5030464;28;20095;-60
2020/12/24 04:16:20;;;;;;;56.45;34.40;;;;;;;9.82;77.01;101442.72;5030414;28;20050;-59
2020/12/24 04:18:47;;;;;;;63.42;36.75;;;;;;;9.82;76.99;101434.84;5030126;28;20395;-59
2020/12/24 04:21:13;;;;;;;59.38;34.83;;;;;;;9.82;76.93;101436.63;5030267;28;20482;-59
2020/12/24 04:23:39;;;;;;;60.72;35.72;;;;;;;9.81;76.87;101430.50;5030146;28;20180;-60
2020/12/24 04:26:05;;;;;;;61.90;36.60;;;;;;;9.82;76.64;101434.84;5030090;28;20045;-59
2020/12/24 04:28:32;;;;;;;61.58;35.50;;;;;;;9.80;76.80;101419.19;5030223;28;20075;-59
2020/12/24 04:31:01;;;;;;;59.55;36.55;;;;;;;9.80;76.74;101413.06;5030077;28;20045;-59
2020/12/24 04:33:27;;;;;;;55.13;34.47;;;;;;;9.79;76.89;101419.25;5030227;28;20111;-60
2020/12/24 04:35:54;;;;;;;63.38;36.85;;;;;;;9.80;76.92;101421.81;5029726;28;20053;-59
2020/12/24 04:38:20;;;;;;;60.17;36.20;;;;;;;9.78;76.80;101423.63;5029910;28;20049;-59
2020/12/24 04:40:50;;;;;;;62.55;35.38;;;;;;;9.78;76.83;101413.16;5029827;28;20041;-59
2020/12/24 04:43:16;;;;;;;62.10;35.75;;;;;;;9.77;76.85;101407.97;5029805;28;20096;-60
2020/12/24 04:45:43;;;;;;;60.67;35.38;;;;;;;9.78;76.95;101410.53;5029901;28;20045;-59
2020/12/24 04:48:09;;;;;;;59.28;34.47;;;;;;;9.77;76.97;101408.81;5029435;28;20058;-60
2020/12/24 04:50:38;;;;;;;62.90;35.33;;;;;;;9.77;76.85;101406.19;5029290;28;20107;-60
2020/12/24 04:53:06;;;;;;;59.63;35.63;;;;;;;9.77;76.92;101405.34;5029705;28;20068;-59
2020/12/24 04:55:32;;;;;;;63.17;36.47;;;;;;;9.75;77.01;101400.19;5029568;28;20049;-59
2020/12/24 04:58:00;;;;;;;61.45;35.67;;;;;;;9.75;77.07;101401.94;5029577;28;20052;-59
2020/12/24 05:00:26;;;;;;;61.92;35.83;;;;;;;9.73;77.09;101394.16;5029414;28;20478;-59
2020/12/24 05:03:02;;;;;;;65.45;37.65;;;;;;;9.73;77.11;101403.78;5029442;28;20050;-59
2020/12/24 05:05:28;;;;;;;62.28;37.28;;;;;;;9.73;77.17;101388.06;5029622;28;20085;-59
2020/12/24 05:07:55;;;;;;;64.20;37.53;;;;;;;9.71;77.09;101384.66;5028672;28;20049;-60
2020/12/24 05:10:21;;;;;;;63.35;36.70;;;;;;;9.71;77.09;101384.66;5029646;28;20053;-59
2020/12/24 05:12:47;;;;;;;58.83;36.33;;;;;;;9.71;77.02;101368.91;5029512;28;20042;-59
2020/12/24 05:15:31;;;;;;;64.22;36.22;;;;;;;9.71;77.17;101369.75;5029378;28;20055;-59
2020/12/24 05:18:19;;;;;;;65.32;38.15;;;;;;;9.70;76.99;101362.84;5029271;28;20049;-59
2020/12/24 05:20:46;;;;;;;64.00;38.05;;;;;;;9.70;77.10;101357.59;5029105;28;20057;-59
2020/12/24 05:23:13;;;;;;;65.85;36.83;;;;;;;9.69;77.01;101349.78;5029091;28;20053;-59
2020/12/24 05:25:39;;;;;;;60.53;37.15;;;;;;;9.69;77.03;101342.78;5029049;28;20049;-59
2020/12/24 05:28:06;;;;;;;63.15;37.95;;;;;;;9.69;77.18;101345.41;5028863;28;20088;-59
2020/12/24 05:30:33;;;;;;;67.50;37.20;;;;;;;9.69;77.22;101348.03;5029201;28;20057;-60
2020/12/24 05:32:59;;;;;;;62.63;34.25;;;;;;;9.70;77.14;101354.09;5029029;28;20399;-59
2020/12/24 05:35:27;;;;;;;64.10;36.85;;;;;;;9.71;77.11;101356.66;5029012;28;20045;-59
2020/12/24 05:37:54;;;;;;;64.25;36.63;;;;;;;9.70;77.05;101341.88;5028982;28;20164;-60
2020/12/24 05:40:28;;;;;;;63.72;36.13;;;;;;;9.71;77.06;101347.94;5029269;28;20104;-60
2020/12/24 05:43:00;;;;;;;65.88;36.08;;;;;;;9.71;76.84;101340.94;5029118;28;20072;-60
2020/12/24 05:45:28;;;;;;;62.78;35.22;;;;;;;9.72;77.00;101339.19;5028951;28;20103;-60
2020/12/24 05:48:23;;;;;;;59.75;33.83;;;;;;;9.70;76.97;101327.91;5028834;28;20056;-61
2020/12/24 05:50:49;;;;;;;60.63;35.40;;;;;;;9.73;76.90;101333.03;5019902;28;20115;-61
2020/12/24 05:53:23;;;;;;;59.75;35.35;;;;;;;9.72;76.92;101312.97;5028692;28;20057;-61
2020/12/24 05:55:49;;;;;;;56.95;34.03;;;;;;;9.72;76.88;101318.22;5028654;28;20073;-61
2020/12/24 05:58:17;;;;;;;58.50;33.90;;;;;;;9.72;76.74;101323.44;5028874;28;20049;-61
2020/12/24 06:00:45;;;;;;;61.17;36.13;;;;;;;9.72;76.89;101315.59;5028552;28;20457;-61
2020/12/24 06:03:13;;;;;;;60.70;35.08;;;;;;;9.71;76.81;101304.25;5028954;28;20060;-61
2020/12/24 06:05:58;;;;;;;56.55;35.30;;;;;;;9.72;76.72;101311.19;5028689;28;20049;-61
2020/12/24 06:08:29;;;;;;;55.00;33.67;;;;;;;9.71;76.63;101311.25;5028491;28;20509;-61
2020/12/24 06:11:09;;;;;;;54.05;34.10;;;;;;;9.71;76.76;101309.47;5028588;28;20433;-61
2020/12/24 06:13:48;;;;;;;60.58;35.17;;;;;;;9.72;76.70;101313.81;5028683;28;20410;-61
2020/12/24 06:16:15;;;;;;;61.58;35.15;;;;;;;9.73;76.93;101310.28;5028657;28;20057;-61
2020/12/24 06:18:45;;;;;;;58.53;34.78;;;;;;;9.73;76.88;101314.69;5028582;28;20525;-61
2020/12/24 06:21:17;;;;;;;53.92;33.67;;;;;;;9.73;76.91;101306.81;5032711;28;20057;-61
2020/12/24 06:23:46;;;;;;;58.55;33.38;;;;;;;9.72;76.81;101299.88;5032447;28;20053;-61
2020/12/24 06:26:21;;;;;;;59.10;33.33;;;;;;;9.72;76.86;101305.94;5032158;28;20107;-61
2020/12/24 06:28:52;;;;;;;59.00;33.72;;;;;;;9.73;76.66;101298.97;5032188;28;20055;-61
2020/12/24 06:31:19;;;;;;;55.85;33.83;;;;;;;9.74;76.97;101295.41;5032320;28;20049;-61
2020/12/24 06:33:46;;;;;;;52.83;31.63;;;;;;;9.74;76.87;101292.81;5032111;28;20088;-61
2020/12/24 06:36:34;;;;;;;54.55;32.17;;;;;;;9.73;76.68;101289.31;5032474;28;20049;-61
2020/12/24 06:39:01;;;;;;;56.20;30.90;;;;;;;9.74;76.87;101282.31;5031972;28;20049;-61
2020/12/24 06:41:45;;;;;;;51.75;32.05;;;;;;;9.74;76.69;101280.53;5032232;28;20422;-61
2020/12/24 06:44:11;;;;;;;52.70;32.20;;;;;;;9.73;76.76;101275.38;5031811;28;20053;-61
2020/12/24 06:46:57;;;;;;;54.63;32.45;;;;;;;9.73;76.62;101278.81;5032191;28;20108;-61
2020/12/24 06:49:31;;;;;;;58.63;33.05;;;;;;;9.73;76.74;101270.97;5032212;28;20490;-61
2020/12/24 06:51:57;;;;;;;55.65;32.70;;;;;;;9.73;76.57;101283.22;5032179;28;20618;-61
2020/12/24 06:54:27;;;;;;;53.35;32.40;;;;;;;9.71;76.61;101280.66;5031820;28;20483;-61
2020/12/24 06:57:25;;;;;;;53.25;31.95;;;;;;;9.73;76.59;101276.22;5031733;28;20041;-61
2020/12/24 07:00:24;;;;;;;54.30;32.47;;;;;;;9.73;76.43;101270.13;5032077;28;20050;-61
2020/12/24 07:02:53;;;;;;;59.30;34.22;;;;;;;9.73;76.44;101278.00;5031905;28;20049;-61
2020/12/24 07:05:40;;;;;;;55.00;33.10;;;;;;;9.73;76.64;101281.44;5031897;28;20050;-61
2020/12/24 07:08:07;;;;;;;57.83;33.35;;;;;;;9.73;76.60;101278.00;5031800;28;20095;-61
2020/12/24 07:10:49;;;;;;;58.58;32.75;;;;;;;9.72;76.63;101271.88;5031611;28;20072;-61
2020/12/24 07:13:34;;;;;;;55.60;31.90;;;;;;;9.72;76.50;101276.28;5031716;28;20088;-62
2020/12/24 07:16:01;;;;;;;60.25;34.53;;;;;;;9.72;76.53;101273.66;5031636;28;20391;-61
2020/12/24 07:18:30;;;;;;;59.05;34.00;;;;;;;9.72;76.56;101276.28;5031417;28;20061;-61
2020/12/24 07:21:00;;;;;;;58.10;33.28;;;;;;;9.73;76.42;101272.75;5031935;28;20048;-61
2020/12/24 07:23:30;;;;;;;55.88;33.03;;;;;;;9.71;76.52;101266.72;5031613;28;20072;-61
2020/12/24 07:26:11;;;;;;;59.60;32.80;;;;;;;9.71;76.42;101253.59;5031355;28;20049;-60
2020/12/24 07:28:39;;;;;;;57.55;32.28;;;;;;;9.70;76.66;101250.16;5031186;28;20042;-62
2020/12/24 07:31:10;;;;;;;58.47;32.90;;;;;;;9.71;76.68;101246.59;5030971;28;20049;-61
2020/12/24 07:33:44;;;;;;;58.28;33.75;;;;;;;9.71;76.42;101243.13;5031306;28;20490;-61
2020/12/24 07:36:10;;;;;;;58.53;33.15;;;;;;;9.71;76.52;101245.75;5031202;28;20056;-60
2020/12/24 07:38:37;;;;;;;61.28;33.85;;;;;;;9.70;76.54;101244.91;5031238;28;20111;-61
2020/12/24 07:41:04;;;;;;;59.60;33.67;;;;;;;9.71;76.47;101251.00;5030923;28;20395;-61
2020/12/24 07:43:30;;;;;;;57.90;32.97;;;;;;;9.70;76.58;101260.63;5031108;28;20849;-62
2020/12/24 07:46:05;;;;;;;61.00;34.70;;;;;;;9.70;76.51;101268.50;5030888;28;20045;-61
2020/12/24 07:48:31;;;;;;;60.20;32.77;;;;;;;9.71;76.48;101266.72;5030826;28;20053;-61
2020/12/24 07:50:57;;;;;;;57.10;31.95;;;;;;;9.71;76.45;101269.34;5030603;28;20053;-61
2020/12/24 07:53:26;;;;;;;57.50;33.40;;;;;;;9.71;76.57;101270.16;5030769;28;20053;-61
2020/12/24 07:55:52;;;;;;;49.40;30.35;;;;;;;9.71;76.53;101272.78;5031029;28;20103;-60
2020/12/24 07:58:19;;;;;;;52.60;30.67;;;;;;;9.71;76.73;101269.34;5030799;28;20045;-61
2020/12/24 08:00:52;;;;;;;51.88;29.95;;;;;;;9.71;76.69;101266.72;5030610;28;20103;-61
2020/12/24 08:03:19;;;;;;;56.33;30.55;;;;;;;9.71;76.79;101261.47;5030644;28;20405;-61
2020/12/24 08:05:48;;;;;;;52.53;30.00;;;;;;;9.71;76.55;101264.94;5030727;28;20103;-61
2020/12/24 08:08:22;;;;;;;55.15;30.27;;;;;;;9.70;76.76;101254.53;5030376;28;20053;-61
2020/12/24 08:10:48;;;;;;;53.35;30.80;;;;;;;9.70;76.86;101252.78;5031064;28;20492;-60
2020/12/24 08:13:14;;;;;;;53.00;30.98;;;;;;;9.69;77.01;101272.03;5030548;28;20046;-61
2020/12/24 08:15:43;;;;;;;54.42;31.55;;;;;;;9.70;76.98;101273.75;5030084;28;20084;-61
2020/12/24 08:18:12;;;;;;;52.97;31.77;;;;;;;9.69;77.07;101264.16;5030326;28;20045;-61
2020/12/24 08:20:47;;;;;;;53.80;31.35;;;;;;;9.69;76.98;101268.53;5030352;28;20099;-61
2020/12/24 08:23:48;;;;;;;47.78;29.08;;;;;;;9.69;77.15;101261.53;5030274;28;20132;-61
2020/12/24 08:26:15;;;;;;;46.85;27.80;;;;;;;9.68;77.13;101259.00;5030286;28;20548;-61
2020/12/24 08:29:01;;;;;;;50.45;28.27;;;;;;;9.69;77.26;101260.69;5030173;28;20057;-61
2020/12/24 08:31:29;;;;;;;47.05;27.58;;;;;;;9.68;77.32;101265.09;5030193;28;20041;-61
2020/12/24 08:33:57;;;;;;;42.85;28.00;;;;;;;9.69;77.27;101260.69;5029796;28;20135;-61
2020/12/24 08:36:28;;;;;;;42.25;26.15;;;;;;;9.68;77.32;101261.63;5029977;28;20482;-61
2020/12/24 08:39:05;;;;;;;44.97;26.75;;;;;;;9.66;77.54;101255.59;5029886;28;20041;-61
2020/12/24 08:42:00;;;;;;;42.90;26.38;;;;;;;9.66;77.52;101260.81;5029964;28;20053;-61
2020/12/24 08:44:26;;;;;;;45.22;27.13;;;;;;;9.64;77.52;101248.63;5027995;28;20045;-61
2020/12/24 08:47:06;;;;;;;41.28;25.75;;;;;;;9.64;77.70;101240.78;5029449;28;20461;-61
2020/12/24 08:49:40;;;;;;;37.17;24.80;;;;;;;9.65;77.74;101228.53;5030066;28;20073;-61
2020/12/24 08:52:24;;;;;;;36.00;22.60;;;;;;;9.66;77.80;101234.63;5029475;28;20057;-61
2020/12/24 08:55:01;;;;;;;36.75;22.90;;;;;;;9.68;77.95;101240.66;5029660;28;20046;-61
2020/12/24 08:57:28;;;;;;;37.17;22.70;;;;;;;9.67;78.02;101244.19;5029744;28;20064;-61
2020/12/24 08:59:55;;;;;;;32.17;20.83;;;;;;;9.68;77.99;101240.66;5029600;28;20049;-61
2020/12/24 09:02:39;;;;;;;29.70;19.73;;;;;;;9.68;77.99;101243.28;5029695;28;20060;-61
2020/12/24 09:05:07;;;;;;;27.67;18.90;;;;;;;9.68;78.03;101251.97;5029563;28;20100;-61
2020/12/24 09:07:42;;;;;;;24.08;15.38;;;;;;;9.68;78.05;101235.41;5029282;28;20485;-61
2020/12/24 09:10:09;;;;;;;25.25;16.80;;;;;;;9.67;78.16;101236.31;5029475;28;20048;-61
2020/12/24 09:12:37;;;;;;;24.55;16.15;;;;;;;9.68;78.00;101240.66;5029528;28;20095;-61
2020/12/24 09:15:08;;;;;;;25.38;15.60;;;;;;;9.69;78.00;101239.72;5029283;28;20069;-61
2020/12/24 09:17:35;;;;;;;22.85;14.65;;;;;;;9.71;78.06;101232.66;5029322;28;20050;-61
2020/12/24 09:20:06;;;;;;;19.88;14.35;;;;;;;9.71;78.16;101225.63;5029303;28;20485;-61
2020/12/24 09:22:32;;;;;;;20.98;14.55;;;;;;;9.72;77.96;101223.88;5029426;28;20041;-61
2020/12/24 09:24:58;;;;;;;18.10;13.30;;;;;;;9.71;78.06;101223.00;5028875;28;20053;-61
2020/12/24 09:27:24;;;;;;;18.42;13.70;;;;;;;9.71;78.09;101230.88;5028911;28;20064;-61
2020/12/24 09:29:51;;;;;;;18.08;12.60;;;;;;;9.70;78.16;101223.06;5029433;28;21051;-61
2020/12/24 09:32:17;;;;;;;20.92;12.98;;;;;;;9.70;78.20;101220.44;5029043;28;20457;-61
2020/12/24 09:34:44;;;;;;;18.35;12.18;;;;;;;9.69;78.14;101217.00;5029002;28;20490;-61
2020/12/24 09:37:11;;;;;;;18.70;12.57;;;;;;;9.70;78.17;101216.09;5028920;28;20056;-61
2020/12/24 09:39:38;;;;;;;16.55;11.95;;;;;;;9.71;78.23;101216.91;5028916;28;20491;-61
2020/12/24 09:42:04;;;;;;;16.48;11.75;;;;;;;9.71;78.20;101206.44;5028772;28;20099;-61
2020/12/24 09:44:31;;;;;;;18.35;12.57;;;;;;;9.70;78.22;101200.34;5029128;28;20497;-60
2020/12/24 09:46:57;;;;;;;17.40;12.43;;;;;;;9.70;78.31;101194.25;5028557;28;20053;-61
2020/12/24 09:49:25;;;;;;;17.17;12.68;;;;;;;9.69;78.17;101185.56;5028894;28;20049;-61
2020/12/24 09:51:51;;;;;;;16.13;11.10;;;;;;;9.69;78.32;101175.06;5028859;28;20135;-61
2020/12/24 09:54:29;;;;;;;14.75;10.65;;;;;;;9.69;78.28;101172.44;5028482;28;20046;-61
2020/12/24 09:56:56;;;;;;;13.07;10.10;;;;;;;9.70;78.32;101170.66;5028613;28;20049;-61
2020/12/24 09:59:22;;;;;;;14.65;10.75;;;;;;;9.70;78.33;101168.03;5028796;28;20080;-61
2020/12/24 10:01:51;;;;;;;13.75;10.20;;;;;;;9.70;78.39;101152.31;5028786;28;20058;-61
2020/12/24 10:04:17;;;;;;;13.75;9.65;;;;;;;9.68;78.56;101147.16;5028901;28;20567;-61
2020/12/24 10:06:43;;;;;;;14.32;10.77;;;;;;;9.69;78.55;101143.63;5028631;28;20099;-61
2020/12/24 10:09:13;;;;;;;15.05;10.80;;;;;;;9.68;78.41;101134.06;5028801;28;20057;-61
2020/12/24 10:11:39;;;;;;;16.55;11.98;;;;;;;9.69;78.50;101121.78;5028703;28;20046;-61
2020/12/24 10:14:05;;;;;;;15.45;10.88;;;;;;;9.70;78.60;101124.38;5028592;28;20045;-61
2020/12/24 10:16:31;;;;;;;16.10;11.75;;;;;;;9.71;78.71;101128.66;5028800;28;20053;-61
2020/12/24 10:18:57;;;;;;;12.75;10.75;;;;;;;9.72;78.58;101125.13;5028733;28;20124;-61
2020/12/24 10:21:25;;;;;;;14.90;9.75;;;;;;;9.72;78.53;101125.13;5028611;28;20383;-61
2020/12/24 10:23:51;;;;;;;16.02;10.88;;;;;;;9.74;78.54;101130.31;5028525;28;20580;-61
2020/12/24 10:26:17;;;;;;;15.77;10.73;;;;;;;9.75;78.71;101125.00;5028651;28;20046;-61
2020/12/24 10:28:43;;;;;;;18.52;12.60;;;;;;;9.76;78.77;101124.09;5028433;28;20050;-61
2020/12/24 10:31:09;;;;;;;17.45;11.95;;;;;;;9.78;78.67;101109.09;5028603;28;20076;-60
2020/12/24 10:33:35;;;;;;;15.43;11.60;;;;;;;9.78;78.69;101103.03;5028631;28;20456;-61
2020/12/24 10:36:01;;;;;;;21.17;13.20;;;;;;;9.78;78.83;101097.78;5028150;28;20045;-61
2020/12/24 10:38:28;;;;;;;18.38;13.05;;;;;;;9.78;78.70;101098.63;5028383;28;20111;-61
2020/12/24 10:40:54;;;;;;;21.65;14.93;;;;;;;9.81;78.72;101095.00;5028086;28;20092;-61
2020/12/24 10:43:20;;;;;;;22.88;14.80;;;;;;;9.82;78.71;101088.84;5028644;28;20046;-61
2020/12/24 10:45:47;;;;;;;19.73;12.90;;;;;;;9.83;78.87;101087.06;5028512;28;20046;-61
2020/12/24 10:48:13;;;;;;;19.33;13.05;;;;;;;9.83;78.83;101092.31;5028150;28;20049;-61
2020/12/24 10:50:39;;;;;;;20.77;15.13;;;;;;;9.82;78.94;101081.00;5028023;28;20103;-61
2020/12/24 10:53:05;;;;;;;18.10;12.63;;;;;;;9.83;79.01;101080.06;5028021;28;20052;-61
2020/12/24 10:55:31;;;;;;;18.70;12.88;;;;;;;9.84;79.11;101065.19;5028006;28;20076;-61
2020/12/24 10:57:57;;;;;;;18.42;13.57;;;;;;;9.83;79.22;101068.72;5028638;28;20107;-61
2020/12/24 11:00:23;;;;;;;16.95;13.40;;;;;;;9.84;79.07;101068.66;5028091;28;20056;-61
2020/12/24 11:02:50;;;;;;;18.35;13.77;;;;;;;9.83;79.14;101064.34;5028263;28;20045;-61
2020/12/24 11:05:16;;;;;;;22.02;16.88;;;;;;;9.83;79.17;101048.63;5028322;28;20045;-61
2020/12/24 11:07:42;;;;;;;22.73;13.70;;;;;;;9.83;79.12;101056.47;5031623;28;20505;-61
2020/12/24 11:10:08;;;;;;;18.20;13.15;;;;;;;9.83;79.21;101053.84;5031532;28;20489;-61
2020/12/24 11:12:34;;;;;;;14.23;10.65;;;;;;;9.83;79.16;101053.00;5031597;28;20069;-61
2020/12/24 11:15:00;;;;;;;13.13;10.15;;;;;;;9.84;79.13;101059.94;5031757;28;20049;-61
2020/12/24 11:17:26;;;;;;;15.77;12.27;;;;;;;9.83;79.24;101053.00;5031703;28;20041;-61
2020/12/24 11:19:52;;;;;;;20.98;16.63;;;;;;;9.81;79.09;101074.03;5031282;28;20045;-61
2020/12/24 11:22:18;;;;;;;21.15;12.52;;;;;;;9.82;79.13;101064.44;5031707;28;20054;-61